CheckWX is a tool to help pilots better visualize weather data.  It is not intended as a substitute for an official pre-flight weather briefing.

06:08:35 UTC

KMNV METAR
Monroe County Airport
Madisonville, Tennessee, USA
Current

34 mins ago

KMNV 200535Z AUTO 00000KT 10SM BKN055 21/20 A3010 RMK A01
Observed
Aug-20 @ 05:35 UTC
Visibility
10 SM
Flight Rules
VFR
Cloud Levels
  • Broken at 5,500' AGL
Temperature
21°C / 70°F
Dewpoint
20°C / 68°F
Humidity
94%
Altimeter
30.1" Hg
Pressure
1019.32 hPa
Previous

54 mins ago

KMNV 200515Z AUTO 00000KT 10SM OVC055 21/21 A3011 RMK A01
Observed
Aug-20 @ 05:15 UTC
Visibility
10 SM
Flight Rules
VFR
Cloud Levels
  • Overcast at 5,500' AGL
Temperature
21°C / 70°F
Dewpoint
21°C / 70°F
Humidity
100%
Altimeter
30.11" Hg
Pressure
1019.62 hPa
Previous

1 hour ago

KMNV 200455Z AUTO 00000KT 10SM OVC060 21/20 A3011 RMK A01
Observed
Aug-20 @ 04:55 UTC
Visibility
10 SM
Flight Rules
VFR
Cloud Levels
  • Overcast at 6,000' AGL
Temperature
21°C / 70°F
Dewpoint
20°C / 68°F
Humidity
94%
Altimeter
30.11" Hg
Pressure
1019.62 hPa